Time;durP1;ratioP1;P1;durP2;ratioP2;P2;SDS_P1;SDS_P2;PMS_P1;PMS_P2;Temp;Humidity;BMP_temperature;BMP_pressure;BME280_temperature;BME280_humidity;BME280_pressure;Samples;Min_cycle;Max_cycle;Signal;HPM_P1;HPM_P2
2021/11/04 00:00:56;;;;;;;51.20;25.80;;;;;;;5.44;86.08;99903.70;116572;1202;138407;-67
2021/11/04 00:03:24;;;;;;;43.00;25.30;;;;;;;5.51;86.03;99905.52;116689;1201;22329;-67
2021/11/04 00:05:52;;;;;;;43.40;22.80;;;;;;;5.58;85.58;99904.80;116750;1201;22331;-67
2021/11/04 00:08:33;;;;;;;39.70;24.00;;;;;;;5.63;85.56;99909.16;116583;1201;137650;-68
2021/11/04 00:11:04;;;;;;;35.70;21.90;;;;;;;5.68;85.21;99907.27;116714;1201;22339;-68
2021/11/04 00:13:32;;;;;;;37.30;23.50;;;;;;;5.69;84.94;99903.30;116578;1201;138493;-68
2021/11/04 00:16:00;;;;;;;31.50;20.30;;;;;;;5.72;84.67;99904.46;116716;1201;22266;-68
2021/11/04 00:18:28;;;;;;;34.30;20.00;;;;;;;5.76;84.71;99908.27;116669;1196;23252;-68
2021/11/04 00:20:56;;;;;;;30.60;19.70;;;;;;;5.79;84.51;99903.29;114581;1179;137581;-70
2021/11/04 00:23:25;;;;;;;38.80;21.80;;;;;;;5.87;84.46;99906.16;116695;1201;23150;-68
2021/11/04 00:25:53;;;;;;;43.60;21.90;;;;;;;5.91;84.33;99908.11;116639;1201;138362;-68
2021/11/04 00:28:21;;;;;;;47.10;22.80;;;;;;;5.96;84.07;99908.98;116716;1200;22386;-68
2021/11/04 00:30:49;;;;;;;54.80;23.40;;;;;;;6.00;83.83;99912.05;116580;1200;137734;-69
2021/11/04 00:33:17;;;;;;;54.60;24.30;;;;;;;6.05;83.84;99905.70;116769;1201;22183;-68
2021/11/04 00:35:45;;;;;;;49.80;22.80;;;;;;;6.10;83.53;99904.44;116749;1200;22341;-68
2021/11/04 00:38:13;;;;;;;49.60;21.40;;;;;;;6.15;83.28;99903.33;116577;1201;138375;-69
2021/11/04 00:40:42;;;;;;;36.90;20.40;;;;;;;6.18;82.98;99902.14;116651;1202;22323;-69
2021/11/04 00:43:10;;;;;;;34.80;20.00;;;;;;;6.22;83.07;99899.02;116571;1201;137753;-69
2021/11/04 00:45:38;;;;;;;36.40;20.50;;;;;;;6.25;83.00;99900.48;116726;1201;22352;-69
2021/11/04 00:48:08;;;;;;;29.50;20.20;;;;;;;6.29;82.95;99898.67;116732;1200;23138;-68
2021/11/04 00:50:36;;;;;;;34.70;21.00;;;;;;;6.33;83.16;99902.81;116620;1200;138682;-68
2021/11/04 00:53:04;;;;;;;40.40;22.70;;;;;;;6.35;83.02;99901.62;116703;1201;23159;-68
2021/11/04 00:55:33;;;;;;;31.70;19.40;;;;;;;6.36;82.67;99910.46;116524;1201;137632;-68
2021/11/04 00:58:01;;;;;;;32.20;19.60;;;;;;;6.35;82.49;99914.70;116730;1201;22337;-68
2021/11/04 01:00:29;;;;;;;28.90;18.40;;;;;;;6.33;83.00;99919.09;116704;1201;22258;-68
2021/11/04 01:02:57;;;;;;;31.70;20.60;;;;;;;6.32;83.14;99920.27;116636;1200;137328;-68
2021/11/04 01:05:25;;;;;;;36.50;18.90;;;;;;;6.33;83.00;99919.85;116709;1201;22179;-68
2021/11/04 01:07:54;;;;;;;34.60;20.80;;;;;;;6.34;82.75;99921.12;116573;1201;138104;-68
2021/11/04 01:10:31;;;;;;;35.40;21.00;;;;;;;6.35;82.98;99918.77;116751;1201;23418;-68
2021/11/04 01:12:59;;;;;;;35.20;22.80;;;;;;;6.36;83.27;99920.91;116592;1200;138791;-68
2021/11/04 01:15:27;;;;;;;35.50;23.30;;;;;;;6.38;83.27;99922.27;116682;1201;22434;-68
2021/11/04 01:17:55;;;;;;;32.90;21.90;;;;;;;6.38;83.39;99916.66;116781;1201;22239;-69
2021/11/04 01:20:23;;;;;;;35.60;22.00;;;;;;;6.42;83.42;99921.09;116565;1201;137809;-67
2021/11/04 01:22:53;;;;;;;39.70;23.10;;;;;;;6.43;83.46;99916.75;116735;1197;22223;-67
2021/11/04 01:25:21;;;;;;;36.70;22.10;;;;;;;6.45;83.52;99916.32;116581;1201;137891;-67
2021/11/04 01:27:49;;;;;;;35.80;22.50;;;;;;;6.45;83.82;99912.50;116703;1201;22551;-67
2021/11/04 01:30:17;;;;;;;43.70;25.50;;;;;;;6.49;83.82;99915.27;116795;1200;22300;-68
2021/11/04 01:32:45;;;;;;;38.60;23.80;;;;;;;6.51;83.90;99917.20;116554;1201;139781;-67
2021/11/04 01:35:14;;;;;;;41.50;24.50;;;;;;;6.51;83.87;99920.41;116638;1187;22381;-68
2021/11/04 01:37:42;;;;;;;40.90;24.50;;;;;;;6.52;83.86;99924.70;116582;1201;137694;-67
2021/11/04 01:40:10;;;;;;;43.80;25.80;;;;;;;6.53;83.91;99926.61;116711;1200;22288;-72
2021/11/04 01:42:38;;;;;;;37.70;23.50;;;;;;;6.54;84.00;99922.30;116622;1201;138837;-71
2021/11/04 01:48:40;;;;;;;35.30;22.10;;;;;;;6.55;83.93;99928.48;116604;1201;137951;-72
2021/11/04 01:51:08;;;;;;;37.40;22.80;;;;;;;6.55;83.67;99928.46;116699;1200;22290;-72
2021/11/04 01:53:36;;;;;;;34.90;21.80;;;;;;;6.56;84.00;99932.33;116743;1196;22357;-72
2021/11/04 01:56:05;;;;;;;35.60;23.00;;;;;;;6.56;83.90;99932.70;116640;1200;137921;-72
2021/11/04 01:58:34;;;;;;;36.10;21.10;;;;;;;6.57;84.10;99934.91;116708;1201;23435;-72
2021/11/04 02:04:01;;;;;;;34.70;22.30;;;;;;;6.61;83.88;99938.74;111122;1216;545646;-72
2021/11/04 02:06:40;;;;;;;34.00;21.70;;;;;;;6.61;83.90;99946.59;116223;1204;23519;-73
2021/11/04 02:09:28;;;;;;;37.60;22.70;;;;;;;6.62;83.93;99941.70;116039;1204;137533;-73
2021/11/04 02:11:59;;;;;;;31.20;21.60;;;;;;;6.63;83.95;99941.23;116075;1205;22409;-73
2021/11/04 02:14:36;;;;;;;31.30;20.20;;;;;;;6.65;83.87;99944.04;116006;1205;137544;-73
2021/11/04 02:17:04;;;;;;;33.60;20.90;;;;;;;6.66;83.68;99950.35;116354;1204;22271;-73
2021/11/04 02:19:51;;;;;;;33.30;21.20;;;;;;;6.67;83.80;99947.89;116219;1203;137336;-74
2021/11/04 02:22:28;;;;;;;34.40;21.20;;;;;;;6.68;83.88;99952.96;116373;1203;22797;-73
2021/11/04 02:25:15;;;;;;;36.70;22.20;;;;;;;6.68;83.73;99951.46;116274;1200;137437;-73
2021/11/04 02:28:04;;;;;;;32.70;20.60;;;;;;;6.68;83.83;99941.51;116125;1204;22387;-74
2021/11/04 02:30:33;;;;;;;31.10;21.10;;;;;;;6.70;83.92;99940.20;116319;1200;22430;-74
2021/11/04 02:33:02;;;;;;;32.00;20.60;;;;;;;6.70;83.81;99947.03;116073;1205;137535;-75
2021/11/04 02:35:30;;;;;;;32.10;21.60;;;;;;;6.71;83.76;99954.64;116063;1205;22563;-75
2021/11/04 02:37:58;;;;;;;25.40;19.00;;;;;;;6.72;83.97;99962.48;116111;1205;137725;-76
2021/11/04 02:40:26;;;;;;;28.50;20.30;;;;;;;6.72;83.97;99966.77;113954;1190;22891;-68
2021/11/04 02:42:54;;;;;;;31.30;20.90;;;;;;;6.72;83.98;99972.52;116107;1205;137740;-67
2021/11/04 02:45:24;;;;;;;34.60;22.90;;;;;;;6.72;84.01;99975.30;116341;1204;23171;-67
2021/11/04 02:47:53;;;;;;;31.00;22.10;;;;;;;6.71;84.07;99978.60;116268;1204;22347;-67
2021/11/04 02:50:21;;;;;;;30.70;21.70;;;;;;;6.72;84.13;99988.68;116115;1204;139213;-67
2021/11/04 02:52:50;;;;;;;27.60;19.70;;;;;;;6.71;84.14;99988.60;116138;1205;22312;-68
2021/11/04 02:55:19;;;;;;;32.60;21.30;;;;;;;6.71;84.40;99980.85;115991;1205;137593;-67
2021/11/04 02:57:48;;;;;;;31.00;20.90;;;;;;;6.71;84.25;99985.14;116324;1205;22296;-67
2021/11/04 03:00:17;;;;;;;27.30;20.20;;;;;;;6.72;84.45;99994.26;116368;1204;23246;-68
2021/11/04 03:02:45;;;;;;;29.70;19.90;;;;;;;6.71;84.64;99995.98;116164;1205;139288;-68
2021/11/04 03:05:13;;;;;;;31.40;21.10;;;;;;;6.71;84.49;100004.76;116336;1205;22330;-67
2021/11/04 03:07:41;;;;;;;30.30;21.50;;;;;;;6.72;84.63;100009.71;116195;1205;137569;-67
2021/11/04 03:10:09;;;;;;;33.80;21.80;;;;;;;6.72;84.46;100010.30;116381;1205;22344;-68
2021/11/04 03:12:37;;;;;;;32.50;22.00;;;;;;;6.72;84.73;100010.80;116309;1205;23162;-68
2021/11/04 03:15:09;;;;;;;31.10;21.70;;;;;;;6.71;84.67;100016.14;116025;1204;137404;-68
2021/11/04 03:17:37;;;;;;;32.70;22.90;;;;;;;6.71;84.65;100024.67;116202;1205;22341;-68
2021/11/04 03:20:07;;;;;;;30.00;21.20;;;;;;;6.70;84.49;100028.47;116041;1203;137762;-67
2021/11/04 03:22:35;;;;;;;30.10;21.60;;;;;;;6.69;84.71;100029.90;116331;1205;22363;-67
2021/11/04 03:25:04;;;;;;;36.50;22.90;;;;;;;6.67;84.65;100030.49;116178;1205;137902;-67
2021/11/04 03:27:34;;;;;;;30.40;22.00;;;;;;;6.66;84.80;100032.24;116299;1205;22351;-68
2021/11/04 03:30:02;;;;;;;31.10;22.10;;;;;;;6.66;84.64;100037.91;116182;1204;22300;-68
2021/11/04 03:32:30;;;;;;;30.60;22.00;;;;;;;6.62;84.71;100039.91;116075;1204;137693;-67
2021/11/04 03:34:58;;;;;;;31.60;22.30;;;;;;;6.63;84.63;100045.24;116215;1205;22378;-68
2021/11/04 03:37:27;;;;;;;39.30;22.80;;;;;;;6.61;84.66;100045.67;116090;1204;139355;-67
2021/11/04 03:39:55;;;;;;;36.40;23.50;;;;;;;6.60;84.68;100040.59;116104;1200;22359;-72
2021/11/04 03:42:23;;;;;;;34.30;22.70;;;;;;;6.58;84.79;100032.11;116208;1205;22317;-72
2021/11/04 03:44:52;;;;;;;32.60;22.90;;;;;;;6.58;84.74;100031.12;116208;1204;138854;-73
2021/11/04 03:47:20;;;;;;;33.90;22.00;;;;;;;6.58;84.97;100028.27;116173;1204;22330;-72
2021/11/04 03:49:49;;;;;;;31.60;22.40;;;;;;;6.57;85.02;100018.46;116189;1205;137683;-73
2021/11/04 03:52:19;;;;;;;28.10;21.20;;;;;;;6.55;85.19;100007.30;116440;1203;22346;-73
2021/11/04 03:54:47;;;;;;;30.70;21.00;;;;;;;6.58;85.06;100008.37;116441;1203;22402;-73
2021/11/04 03:57:15;;;;;;;31.10;21.80;;;;;;;6.59;85.10;100005.48;116362;1203;137442;-73
2021/11/04 03:59:43;;;;;;;27.50;21.80;;;;;;;6.60;85.08;100004.33;116333;1204;22310;-73
2021/11/04 04:02:11;;;;;;;32.30;21.60;;;;;;;6.61;85.22;100007.40;116252;1204;137422;-73
2021/11/04 04:04:39;;;;;;;31.80;21.00;;;;;;;6.62;85.12;100003.64;116242;1203;22963;-72
2021/11/04 04:07:07;;;;;;;32.40;21.70;;;;;;;6.63;85.11;99996.51;116197;1203;137806;-73
2021/11/04 04:09:35;;;;;;;30.10;21.50;;;;;;;6.62;85.04;99996.81;116329;1203;22142;-73
2021/11/04 04:12:04;;;;;;;30.10;21.50;;;;;;;6.60;84.89;99985.91;116290;1203;22224;-73
2021/11/04 04:14:32;;;;;;;27.10;20.60;;;;;;;6.58;84.85;99976.76;116338;1203;137533;-73
2021/11/04 04:17:01;;;;;;;30.30;21.60;;;;;;;6.57;85.00;99970.55;116400;1203;22414;-73
2021/11/04 04:19:29;;;;;;;30.10;20.40;;;;;;;6.56;84.89;99967.90;116254;1203;137464;-71
2021/11/04 04:21:58;;;;;;;31.40;22.00;;;;;;;6.54;85.10;99972.79;116424;1203;22334;-74
2021/11/04 04:24:27;;;;;;;29.10;20.50;;;;;;;6.53;85.12;99976.04;116336;1204;22368;-72
2021/11/04 04:26:55;;;;;;;30.20;22.10;;;;;;;6.51;85.20;99976.44;116346;1203;137326;-72
2021/11/04 04:29:23;;;;;;;33.40;21.50;;;;;;;6.50;85.08;99983.14;116332;1203;22227;-73
2021/11/04 04:31:51;;;;;;;30.30;20.70;;;;;;;6.50;85.01;99987.10;116232;1204;137981;-72
2021/11/04 04:34:22;;;;;;;29.90;22.80;;;;;;;6.49;85.15;99990.45;116447;1203;22663;-72
2021/11/04 04:36:50;;;;;;;35.80;22.80;;;;;;;6.45;85.08;99993.61;116391;1203;22153;-72
2021/11/04 04:39:22;;;;;;;35.70;24.00;;;;;;;6.42;85.19;99995.87;115831;1203;137141;-72
2021/11/04 04:41:50;;;;;;;34.70;23.70;;;;;;;6.39;85.29;99994.34;116440;1203;22370;-72
2021/11/04 04:44:19;;;;;;;35.40;23.10;;;;;;;6.34;85.18;99993.60;116224;1204;137754;-72
2021/11/04 04:46:47;;;;;;;35.70;23.70;;;;;;;6.30;85.25;99989.80;116475;1203;22350;-72
2021/11/04 04:49:15;;;;;;;36.20;24.50;;;;;;;6.24;85.10;99989.17;116245;1203;138514;-71
2021/11/04 04:51:44;;;;;;;39.40;25.90;;;;;;;6.20;85.48;99991.27;113530;1196;22479;-72
2021/11/04 04:54:12;;;;;;;35.00;24.80;;;;;;;6.17;85.63;99989.27;116226;1203;23222;-73
2021/11/04 04:56:40;;;;;;;37.50;25.60;;;;;;;6.14;85.69;99984.61;116163;1203;137506;-72
2021/11/04 04:59:08;;;;;;;33.20;22.20;;;;;;;6.11;85.81;99979.92;116282;1203;22445;-73
2021/11/04 05:01:36;;;;;;;37.30;25.30;;;;;;;6.09;85.95;99972.02;116213;1203;137868;-73
2021/11/04 05:04:05;;;;;;;40.80;25.10;;;;;;;6.05;86.03;99968.95;116394;1203;23084;-72
2021/11/04 05:06:33;;;;;;;38.00;26.40;;;;;;;6.01;86.13;99968.27;116339;1204;22458;-74
2021/11/04 05:09:01;;;;;;;37.70;24.70;;;;;;;5.97;86.48;99970.44;116188;1203;138371;-74
2021/11/04 05:11:31;;;;;;;38.80;26.40;;;;;;;5.94;86.61;99966.70;116337;1203;22380;-74
2021/11/04 05:13:59;;;;;;;35.80;24.60;;;;;;;5.93;86.79;99975.23;116236;1203;137807;-74
2021/11/04 05:16:27;;;;;;;42.30;24.70;;;;;;;5.92;86.85;99979.04;116185;1203;22313;-74
2021/11/04 05:18:55;;;;;;;36.00;25.40;;;;;;;5.91;86.90;99976.05;116377;1203;22376;-75
2021/11/04 05:21:23;;;;;;;37.60;25.90;;;;;;;5.90;87.04;99977.57;116223;1203;137301;-74
2021/11/04 05:23:51;;;;;;;40.90;25.00;;;;;;;5.86;87.08;99979.48;116329;1203;22336;-75
2021/11/04 05:26:19;;;;;;;33.40;23.30;;;;;;;5.86;87.13;99983.08;116300;1203;138413;-75
2021/11/04 05:28:48;;;;;;;40.00;26.40;;;;;;;5.82;87.48;99986.76;116412;1203;22321;-75
2021/11/04 05:31:16;;;;;;;34.90;24.70;;;;;;;5.81;87.22;99995.91;116330;1203;137763;-75
2021/11/04 05:33:44;;;;;;;33.20;23.90;;;;;;;5.79;87.41;99998.70;117046;1197;22207;-74
2021/11/04 05:36:12;;;;;;;38.30;25.40;;;;;;;5.80;87.42;100000.83;115778;1198;22758;-76
2021/11/04 05:38:40;;;;;;;34.80;24.50;;;;;;;5.81;87.56;99999.95;116276;1199;138297;-78
2021/11/04 05:41:09;;;;;;;33.70;23.10;;;;;;;5.83;87.69;99996.57;113072;1199;25219;-77
2021/11/04 05:43:37;;;;;;;34.00;23.60;;;;;;;5.84;87.69;99997.81;116797;1194;137999;-77
2021/11/04 05:46:05;;;;;;;32.90;23.30;;;;;;;5.84;87.68;99997.98;116979;1199;22180;-76
2021/11/04 05:48:34;;;;;;;31.60;22.90;;;;;;;5.83;87.86;99995.73;116994;1199;22311;-77
2021/11/04 05:51:02;;;;;;;32.30;22.60;;;;;;;5.84;87.78;99992.79;116611;1193;138584;-76
2021/11/04 05:53:30;;;;;;;32.00;22.20;;;;;;;5.84;87.79;100001.77;116679;1200;22385;-77
2021/11/04 05:55:58;;;;;;;34.20;22.70;;;;;;;5.83;87.81;100003.06;115260;1200;137689;-78
2021/11/04 05:58:26;;;;;;;31.40;21.90;;;;;;;5.81;87.59;100007.27;112743;1200;24067;-75
2021/11/04 06:00:54;;;;;;;31.40;22.60;;;;;;;5.78;87.89;100005.20;112686;1200;22493;-73
2021/11/04 06:03:22;;;;;;;29.50;22.00;;;;;;;5.75;87.52;100010.84;116624;1200;137631;-75
2021/11/04 06:05:50;;;;;;;32.90;23.20;;;;;;;5.72;87.67;100012.23;116683;1200;22222;-75
2021/11/04 06:08:18;;;;;;;34.80;24.40;;;;;;;5.69;87.72;100012.73;116591;1199;137697;-75
2021/11/04 06:10:46;;;;;;;35.70;25.00;;;;;;;5.67;88.14;100013.69;116721;1193;22487;-76
2021/11/04 06:13:14;;;;;;;35.00;23.40;;;;;;;5.66;88.16;100017.30;116625;1200;138299;-74
2021/11/04 06:15:58;;;;;;;38.40;25.20;;;;;;;5.65;88.45;100013.65;116696;1200;22289;-74
2021/11/04 06:18:46;;;;;;;;;;;;;;;5.64;88.65;100020.23;116725;1200;22377;-74
2021/11/04 06:21:14;;;;;;;;;;;;;;;5.63;88.67;100027.64;116618;1200;124996;-73
2021/11/04 06:23:42;;;;;;;38.50;23.90;;;;;;;5.63;89.09;100037.36;116697;1200;22305;-74
2021/11/04 06:26:27;;;;;;;37.80;24.20;;;;;;;5.64;89.23;100044.38;116481;1201;138063;-74
2021/11/04 06:28:59;;;;;;;37.10;24.10;;;;;;;5.65;89.47;100041.48;116678;1199;22480;-75
2021/11/04 06:31:27;;;;;;;45.60;28.10;;;;;;;5.68;89.64;100039.88;116590;1200;138044;-74
2021/11/04 06:33:56;;;;;;;42.80;28.60;;;;;;;5.69;89.99;100042.96;116711;1200;23295;-74
2021/11/04 06:36:24;;;;;;;44.00;26.60;;;;;;;5.71;90.25;100047.16;116713;1200;23225;-74
2021/11/04 06:38:52;;;;;;;41.80;26.90;;;;;;;5.74;90.31;100051.77;116609;1200;137892;-74
2021/11/04 06:41:20;;;;;;;41.30;27.60;;;;;;;5.78;90.49;100058.90;116682;1199;22436;-73
2021/11/04 06:43:48;;;;;;;41.10;26.40;;;;;;;5.82;90.57;100053.98;116614;1200;138695;-75
2021/11/04 06:46:16;;;;;;;42.20;27.70;;;;;;;5.86;90.83;100055.64;116718;1199;23064;-73
2021/11/04 06:48:48;;;;;;;44.30;27.70;;;;;;;5.91;90.78;100052.40;116719;1200;22458;-74
2021/11/04 06:51:18;;;;;;;45.00;27.50;;;;;;;5.95;91.09;100052.04;116901;1199;137709;-74
2021/11/04 06:53:53;;;;;;;45.90;29.70;;;;;;;5.99;91.27;100053.08;114710;1192;24035;-74
2021/11/04 06:56:22;;;;;;;45.90;28.20;;;;;;;6.04;91.39;100041.08;115750;1198;139284;-75
2021/11/04 06:58:52;;;;;;;49.10;29.50;;;;;;;6.08;91.54;100030.42;116870;1199;22345;-74
2021/11/04 07:01:21;;;;;;;45.30;28.70;;;;;;;6.13;91.51;100031.31;116903;1199;137892;-74
2021/11/04 07:03:50;;;;;;;45.50;28.00;;;;;;;6.17;91.52;100026.93;116855;1199;22432;-73
2021/11/04 07:06:26;;;;;;;44.50;28.80;;;;;;;6.21;91.61;100019.81;116840;1199;22177;-75
2021/11/04 07:08:59;;;;;;;44.20;28.70;;;;;;;6.25;91.70;100018.42;116876;1199;138824;-74
2021/11/04 07:11:31;;;;;;;51.90;31.00;;;;;;;6.26;91.86;100016.95;114849;1199;22437;-74
2021/11/04 07:13:59;;;;;;;47.60;29.70;;;;;;;6.27;91.73;100014.88;113029;1200;137901;-71
2021/11/04 07:16:28;;;;;;;46.80;30.50;;;;;;;6.25;91.58;99998.98;117065;1199;23121;-71
2021/11/04 07:18:57;;;;;;;43.50;29.70;;;;;;;6.28;91.77;99997.55;116957;1198;22255;-71
2021/11/04 07:21:42;;;;;;;48.40;31.70;;;;;;;6.27;91.68;100001.27;116905;1198;137464;-71
2021/11/04 07:24:17;;;;;;;45.10;29.20;;;;;;;6.26;91.79;99996.35;116816;1200;22312;-71
2021/11/04 07:26:47;;;;;;;47.00;29.50;;;;;;;6.26;91.75;99989.52;116624;1200;138510;-71
2021/11/04 07:29:15;;;;;;;41.80;28.60;;;;;;;6.26;91.75;99994.02;116731;1199;22241;-72
2021/11/04 07:31:43;;;;;;;42.90;28.30;;;;;;;6.25;91.65;99989.81;116776;1199;137823;-71
2021/11/04 07:34:12;;;;;;;48.30;30.00;;;;;;;6.24;91.65;99989.79;116725;1200;22330;-71
2021/11/04 07:36:40;;;;;;;49.30;30.10;;;;;;;6.24;91.85;99987.08;117035;1199;22344;-71
2021/11/04 07:39:11;;;;;;;42.70;27.70;;;;;;;6.26;92.05;99988.39;116704;1199;137755;-61
2021/11/04 07:41:40;;;;;;;42.30;28.00;;;;;;;6.29;92.29;99985.48;116782;1199;22231;-71
2021/11/04 07:44:08;;;;;;;48.90;30.10;;;;;;;6.33;92.35;99984.11;116889;1198;137714;-71
2021/11/04 07:46:36;;;;;;;48.70;31.50;;;;;;;6.38;92.59;99990.14;116812;1200;23178;-71
2021/11/04 07:49:04;;;;;;;54.80;31.60;;;;;;;6.40;92.51;99989.47;116901;1199;137797;-70
2021/11/04 07:51:35;;;;;;;49.80;32.10;;;;;;;6.43;92.48;99996.11;117008;1198;22288;-71
2021/11/04 07:54:06;;;;;;;46.00;30.30;;;;;;;6.47;92.67;99991.23;116805;1200;22850;-71
2021/11/04 07:56:34;;;;;;;47.10;31.70;;;;;;;6.51;92.47;99995.79;116970;1199;137625;-71
2021/11/04 07:59:08;;;;;;;47.30;30.40;;;;;;;6.55;92.79;99994.48;116849;1199;22786;-71
2021/11/04 08:01:37;;;;;;;55.90;31.40;;;;;;;6.61;92.91;99995.59;116833;1199;137824;-71
2021/11/04 08:04:06;;;;;;;46.60;31.20;;;;;;;6.66;93.07;99995.91;117057;1199;22317;-72
2021/11/04 08:06:34;;;;;;;51.90;31.30;;;;;;;6.72;93.05;99994.38;117034;1199;22400;-71
2021/11/04 08:09:03;;;;;;;48.90;30.80;;;;;;;6.79;93.09;99990.70;116626;1199;138145;-71
2021/11/04 08:11:31;;;;;;;48.10;32.10;;;;;;;6.87;93.25;99988.14;116983;1199;23099;-71
2021/11/04 08:13:59;;;;;;;45.40;30.80;;;;;;;6.94;93.15;99993.34;116720;1199;137640;-71
2021/11/04 08:16:27;;;;;;;49.60;31.00;;;;;;;7.02;93.17;99994.83;113628;1200;22989;-70
2021/11/04 08:19:06;;;;;;;45.80;30.60;;;;;;;7.08;93.20;99996.70;112580;1193;137906;-70
2021/11/04 08:21:35;;;;;;;43.20;30.50;;;;;;;7.17;93.21;99998.30;112783;1200;25078;-71
2021/11/04 08:24:04;;;;;;;46.70;30.40;;;;;;;7.24;93.29;99988.46;116633;1200;22211;-71
2021/11/04 08:26:33;;;;;;;46.70;31.60;;;;;;;7.31;93.29;99991.52;116672;1196;137961;-71
2021/11/04 08:29:02;;;;;;;46.00;31.60;;;;;;;7.39;93.35;99983.17;116641;1193;22306;-71
2021/11/04 08:31:30;;;;;;;48.30;33.30;;;;;;;7.47;93.29;99976.70;116658;1185;137874;-71
2021/11/04 08:33:58;;;;;;;40.90;29.50;;;;;;;7.53;93.10;99971.95;116780;1199;22346;-71
2021/11/04 08:36:26;;;;;;;45.40;28.20;;;;;;;7.62;93.11;99977.68;116714;1193;22343;-71
2021/11/04 08:38:54;;;;;;;40.40;29.30;;;;;;;7.68;92.86;99978.93;116831;1199;137904;-71
2021/11/04 08:41:23;;;;;;;36.80;28.10;;;;;;;7.74;92.68;99977.11;116797;1199;22331;-71
2021/11/04 08:43:51;;;;;;;38.80;27.10;;;;;;;7.81;92.61;99978.48;116909;1199;138085;-71
2021/11/04 08:46:19;;;;;;;42.80;30.40;;;;;;;7.89;92.56;99967.23;115919;1199;22454;-70
2021/11/04 08:48:47;;;;;;;41.50;29.60;;;;;;;7.96;92.46;99961.57;112721;1193;22433;-73
2021/11/04 08:51:15;;;;;;;37.60;29.10;;;;;;;8.00;92.24;99959.58;113843;1193;137711;-72
2021/11/04 08:53:43;;;;;;;37.30;26.50;;;;;;;8.09;92.26;99965.14;112816;1199;22452;-73
2021/11/04 08:56:20;;;;;;;36.90;27.00;;;;;;;8.18;92.15;99967.45;113279;1193;137671;-73
2021/11/04 08:58:49;;;;;;;39.70;26.90;;;;;;;8.23;91.84;99958.89;116790;1200;23159;-71
2021/11/04 09:01:17;;;;;;;36.00;26.70;;;;;;;8.27;91.52;99960.45;116889;1199;138790;-71
2021/11/04 09:03:45;;;;;;;40.90;26.10;;;;;;;8.32;91.49;99962.66;116924;1199;23042;-71
2021/11/04 09:06:14;;;;;;;32.60;25.10;;;;;;;8.38;91.36;99969.30;117003;1199;22368;-71
2021/11/04 09:08:47;;;;;;;34.00;23.80;;;;;;;8.46;91.36;99967.50;116932;1199;137624;-71
2021/11/04 09:11:15;;;;;;;31.80;24.30;;;;;;;8.55;91.39;99966.23;116899;1200;22975;-70
2021/11/04 09:13:49;;;;;;;30.70;23.90;;;;;;;8.62;91.18;99965.34;116889;1199;138465;-71
2021/11/04 09:16:17;;;;;;;30.80;24.80;;;;;;;8.68;90.96;99970.18;116884;1199;22356;-71
2021/11/04 09:18:46;;;;;;;38.80;26.10;;;;;;;8.74;90.68;99966.12;117057;1199;22975;-72
2021/11/04 09:21:14;;;;;;;32.90;24.20;;;;;;;8.80;90.46;99958.81;116884;1199;137812;-71
2021/11/04 09:23:43;;;;;;;45.20;27.20;;;;;;;8.87;90.40;99957.07;114294;1193;23799;-73
2021/11/04 09:26:13;;;;;;;41.30;27.10;;;;;;;8.94;90.47;99951.30;116613;1199;138134;-70
2021/11/04 09:28:42;;;;;;;53.10;36.50;;;;;;;9.02;90.13;99951.66;116938;1199;22226;-69
2021/11/04 09:31:10;;;;;;;34.20;26.80;;;;;;;9.11;90.32;99953.11;116747;1199;137989;-71
2021/11/04 09:33:41;;;;;;;32.10;24.20;;;;;;;9.24;90.23;99951.91;116590;1199;22429;-72
2021/11/04 09:36:09;;;;;;;33.10;25.30;;;;;;;9.36;90.06;99954.14;112832;1199;25189;-71
2021/11/04 09:38:38;;;;;;;30.50;23.40;;;;;;;9.49;90.03;99955.25;116105;1200;138226;-71
2021/11/04 09:41:06;;;;;;;37.00;23.80;;;;;;;9.62;89.60;99944.40;112994;1199;25462;-70
2021/11/04 09:43:34;;;;;;;30.30;23.40;;;;;;;9.74;89.53;99935.29;116661;1199;138191;-71
2021/11/04 09:46:03;;;;;;;31.60;23.80;;;;;;;9.88;89.32;99928.10;116642;1200;23082;-71
2021/11/04 09:48:31;;;;;;;32.10;22.30;;;;;;;10.00;88.97;99930.98;116941;1199;22376;-70
2021/11/04 09:51:00;;;;;;;32.20;24.00;;;;;;;10.13;88.75;99929.70;116630;1200;138115;-70
2021/11/04 09:53:30;;;;;;;32.80;25.00;;;;;;;10.25;88.23;99927.16;116871;1200;22374;-70
2021/11/04 09:56:02;;;;;;;31.40;24.90;;;;;;;10.37;87.73;99928.29;116840;1199;137978;-70
2021/11/04 09:58:34;;;;;;;28.70;22.60;;;;;;;10.48;86.97;99923.38;113324;1192;22456;-70
2021/11/04 10:01:26;;;;;;;29.50;22.00;;;;;;;10.56;86.47;99912.96;116811;1199;23117;-70
2021/11/04 10:03:55;;;;;;;30.80;22.20;;;;;;;10.63;85.88;99913.73;116991;1199;22303;-70
2021/11/04 10:06:33;;;;;;;27.60;21.40;;;;;;;10.67;85.77;99908.13;116903;1199;22352;-70
2021/11/04 10:09:04;;;;;;;25.00;20.50;;;;;;;10.73;85.08;99905.83;116852;1199;137974;-70
2021/11/04 10:11:35;;;;;;;28.00;20.90;;;;;;;10.80;84.53;99902.13;116764;1186;22388;-69
2021/11/04 10:14:07;;;;;;;28.80;21.20;;;;;;;10.88;84.40;99897.22;116842;1199;138440;-70
2021/11/04 10:16:35;;;;;;;27.40;20.00;;;;;;;10.95;84.04;99890.06;116986;1199;23762;-69
2021/11/04 10:19:13;;;;;;;27.30;20.10;;;;;;;11.07;83.54;99889.46;116938;1199;22290;-69
2021/11/04 10:21:46;;;;;;;25.30;19.50;;;;;;;11.17;83.16;99891.72;116880;1199;139005;-69
2021/11/04 10:24:22;;;;;;;25.10;19.80;;;;;;;11.26;82.77;99894.18;116800;1199;22366;-69
2021/11/04 10:26:55;;;;;;;27.00;20.50;;;;;;;11.37;82.19;99893.73;116829;1184;138146;-69
2021/11/04 10:29:24;;;;;;;25.60;19.80;;;;;;;11.46;81.64;99892.31;117012;1199;22486;-70
2021/11/04 10:31:54;;;;;;;24.50;18.70;;;;;;;11.55;81.29;99888.15;116909;1199;138951;-71
2021/11/04 10:34:41;;;;;;;25.80;19.30;;;;;;;11.63;80.85;99882.70;117026;1199;22424;-71
2021/11/04 10:37:11;;;;;;;26.90;19.90;;;;;;;11.78;80.03;99881.02;117026;1199;23019;-72
2021/11/04 10:39:39;;;;;;;28.00;20.40;;;;;;;11.90;79.30;99871.48;115975;1199;138907;-67
2021/11/04 10:42:08;;;;;;;28.30;19.40;;;;;;;11.98;78.66;99870.89;117010;1199;22755;-67
2021/11/04 10:44:36;;;;;;;23.70;18.90;;;;;;;12.00;77.81;99871.23;116668;1200;138176;-67
2021/11/04 10:47:05;;;;;;;23.60;18.70;;;;;;;12.02;77.79;99867.27;116968;1199;22315;-67
2021/11/04 10:49:44;;;;;;;23.50;18.90;;;;;;;12.04;77.72;99864.84;116701;1199;140112;-67
2021/11/04 10:52:14;;;;;;;24.10;19.70;;;;;;;12.06;77.63;99851.70;116891;1199;22466;-67
2021/11/04 10:54:47;;;;;;;24.10;19.30;;;;;;;12.08;77.65;99853.56;116915;1199;22186;-67
2021/11/04 10:57:35;;;;;;;23.60;18.30;;;;;;;12.10;77.28;99847.97;116767;1199;138901;-67
2021/11/04 11:00:14;;;;;;;23.50;17.40;;;;;;;12.14;76.78;99836.29;116870;1193;22313;-67
2021/11/04 11:03:01;;;;;;;27.30;18.60;;;;;;;12.16;76.51;99829.65;116722;1194;139176;-67
2021/11/04 11:05:30;;;;;;;23.10;19.00;;;;;;;12.20;76.49;99829.25;116889;1199;22744;-67
2021/11/04 11:08:05;;;;;;;22.20;17.50;;;;;;;12.22;76.24;99833.05;116737;1200;138268;-67
2021/11/04 11:10:36;;;;;;;28.80;17.80;;;;;;;12.26;75.78;99834.54;116852;1199;22376;-65
2021/11/04 11:13:05;;;;;;;24.00;18.40;;;;;;;12.29;75.32;99840.23;116781;1200;22362;-67
2021/11/04 11:15:33;;;;;;;28.50;17.40;;;;;;;12.31;75.09;99833.48;116638;1200;137957;-67
2021/11/04 11:18:02;;;;;;;23.50;18.10;;;;;;;12.32;75.33;99830.16;116751;1200;22882;-67
2021/11/04 11:20:32;;;;;;;22.90;17.60;;;;;;;12.35;75.59;99823.80;116736;1199;138303;-67
2021/11/04 11:23:02;;;;;;;22.20;17.30;;;;;;;12.39;75.59;99822.95;116886;1199;22254;-67
2021/11/04 11:25:34;;;;;;;26.40;18.30;;;;;;;12.47;75.56;99819.84;116718;1199;139037;-66
2021/11/04 11:28:05;;;;;;;23.00;18.20;;;;;;;12.58;75.16;99827.23;116723;1199;22401;-67
2021/11/04 11:30:33;;;;;;;20.90;17.50;;;;;;;12.66;74.50;99823.73;116779;1199;22376;-67